Time;durP1;ratioP1;P1;durP2;ratioP2;P2;SDS_P1;SDS_P2;PMS_P1;PMS_P2;Temp;Humidity;BMP_temperature;BMP_pressure;BME280_temperature;BME280_humidity;BME280_pressure;Samples;Min_cycle;Max_cycle;Signal;HPM_P1;HPM_P2
2021/04/21 00:01:00;;;;;;;17.20;13.23;;;;;;;11.29;100.00;101006.63;5034307;28;20044;-73
2021/04/21 00:03:47;;;;;;;16.27;13.48;;;;;;;11.62;100.00;101016.59;5034624;28;20109;-73
2021/04/21 00:06:35;;;;;;;16.67;13.55;;;;;;;11.61;100.00;101007.84;5034700;28;20025;-73
2021/04/21 00:09:22;;;;;;;17.73;13.63;;;;;;;10.87;100.00;101002.00;5034969;28;20030;-73
2021/04/21 00:12:08;;;;;;;18.85;14.43;;;;;;;10.91;100.00;101006.31;5034619;28;20033;-73
2021/04/21 00:14:54;;;;;;;17.52;13.68;;;;;;;10.82;100.00;101012.56;5020421;28;20221;-74
2021/04/21 00:17:48;;;;;;;17.92;14.00;;;;;;;10.67;100.00;101009.28;5034872;28;20109;-73
2021/04/21 00:20:35;;;;;;;18.00;14.07;;;;;;;10.88;100.00;101011.63;5034375;28;20029;-73
2021/04/21 00:23:22;;;;;;;17.98;14.27;;;;;;;11.10;100.00;101018.28;5035226;28;20029;-72
2021/04/21 00:26:12;;;;;;;17.63;13.98;;;;;;;10.87;100.00;101020.34;5034059;28;20029;-73
2021/04/21 00:28:58;;;;;;;17.15;14.13;;;;;;;10.65;100.00;101018.91;5034715;28;20025;-72
2021/04/21 00:31:45;;;;;;;17.90;14.38;;;;;;;10.75;100.00;101021.41;5034159;28;20040;-73
2021/04/21 00:34:32;;;;;;;18.65;14.73;;;;;;;10.67;100.00;101020.63;5033707;28;20026;-73
2021/04/21 00:37:23;;;;;;;19.15;14.27;;;;;;;10.80;100.00;101023.97;5035477;28;20292;-73
2021/04/21 00:40:16;;;;;;;18.85;14.73;;;;;;;11.09;100.00;101024.41;5034897;28;20419;-73
2021/04/21 00:43:17;;;;;;;19.65;14.77;;;;;;;10.69;100.00;101025.84;5033918;28;20029;-73
2021/04/21 00:46:15;;;;;;;18.65;14.38;;;;;;;10.63;100.00;101020.69;5034407;28;20044;-73
2021/04/21 00:49:14;;;;;;;19.75;15.38;;;;;;;10.86;100.00;101026.50;5034289;28;20496;-73
2021/04/21 00:52:06;;;;;;;19.05;15.30;;;;;;;10.88;100.00;101027.34;5034416;28;20091;-73
2021/04/21 00:55:04;;;;;;;22.00;15.48;;;;;;;11.04;100.00;101018.34;5032915;28;20025;-72
2021/04/21 00:58:20;;;;;;;18.83;14.88;;;;;;;10.85;100.00;101017.75;5034405;28;20078;-72
2021/04/21 01:01:10;;;;;;;17.88;14.27;;;;;;;10.63;100.00;101020.69;5033803;28;20029;-73
2021/04/21 01:03:56;;;;;;;18.38;14.32;;;;;;;10.96;100.00;101021.09;5020154;28;20021;-73
2021/04/21 01:06:45;;;;;;;17.27;14.02;;;;;;;10.86;100.00;101019.50;5032497;28;20105;-73
2021/04/21 01:09:32;;;;;;;19.60;14.00;;;;;;;10.74;100.00;101022.28;5020188;28;20480;-73
2021/04/21 01:12:22;;;;;;;19.80;14.50;;;;;;;10.83;100.00;101019.53;5018296;28;20033;-73
2021/04/21 01:15:10;;;;;;;19.48;14.68;;;;;;;10.72;100.00;101012.72;5019816;28;20029;-73
2021/04/21 01:17:58;;;;;;;19.10;14.95;;;;;;;10.71;100.00;101016.22;5019380;28;20022;-73
2021/04/21 01:20:55;;;;;;;19.17;14.77;;;;;;;10.75;100.00;101020.53;5033214;28;20059;-72
2021/04/21 01:24:01;;;;;;;21.17;15.63;;;;;;;10.29;100.00;101017.59;5033848;28;20036;-72
2021/04/21 01:26:47;;;;;;;18.42;14.73;;;;;;;10.46;100.00;101023.53;5034999;28;20387;-73
2021/04/21 01:29:43;;;;;;;19.88;15.38;;;;;;;10.49;100.00;101028.72;5033327;28;20033;-73
2021/04/21 01:32:32;;;;;;;20.75;15.38;;;;;;;10.47;100.00;101030.50;5034085;28;20045;-73
2021/04/21 01:35:21;;;;;;;18.73;14.93;;;;;;;10.81;100.00;101018.69;5033518;28;20026;-73
2021/04/21 01:38:07;;;;;;;19.88;14.88;;;;;;;10.64;100.00;101025.06;5019654;28;20025;-71
2021/04/21 01:40:57;;;;;;;19.83;15.85;;;;;;;10.70;100.00;101025.84;5032688;28;20025;-72
2021/04/21 01:43:46;;;;;;;21.10;15.45;;;;;;;10.81;100.00;101026.53;5033472;28;20029;-72
2021/04/21 01:46:39;;;;;;;20.23;15.48;;;;;;;11.22;100.00;101021.59;5032962;28;20112;-72
2021/04/21 01:49:37;;;;;;;19.58;15.23;;;;;;;11.00;100.00;101027.16;5018345;28;20037;-72
2021/04/21 01:52:31;;;;;;;19.63;15.18;;;;;;;10.97;100.00;101030.69;5032607;28;20394;-73
2021/04/21 01:55:19;;;;;;;19.40;15.60;;;;;;;11.11;100.00;101022.63;5032308;28;20021;-72
2021/04/21 01:58:42;;;;;;;21.02;16.30;;;;;;;10.60;100.00;101029.44;5035590;28;20041;-72
2021/04/21 02:01:58;;;;;;;22.00;16.88;;;;;;;10.66;100.00;101032.00;5022862;28;20109;-72
2021/04/21 02:04:50;;;;;;;24.23;18.52;;;;;;;10.36;100.00;101032.38;5036749;28;20037;-72
2021/04/21 02:08:00;;;;;;;23.25;17.15;;;;;;;10.29;100.00;101035.09;5023177;28;20024;-72
2021/04/21 02:11:10;;;;;;;22.17;17.15;;;;;;;10.15;100.00;101032.63;5023076;28;20091;-72
2021/04/21 02:13:59;;;;;;;21.90;16.98;;;;;;;10.28;100.00;101035.97;5036890;28;20048;-72
2021/04/21 02:16:56;;;;;;;22.30;17.58;;;;;;;10.07;100.00;101023.97;5036180;28;20088;-72
2021/04/21 02:19:55;;;;;;;21.70;16.15;;;;;;;10.29;100.00;101029.84;5036968;28;20021;-73
2021/04/21 02:22:53;;;;;;;23.83;16.92;;;;;;;10.36;100.00;101036.75;5037210;28;20022;-73
2021/04/21 02:26:02;;;;;;;22.55;17.10;;;;;;;9.99;100.00;101031.88;5036322;28;20144;-72
2021/04/21 02:29:01;;;;;;;22.20;16.75;;;;;;;10.41;100.00;101032.31;5036513;28;20013;-72
2021/04/21 02:32:40;;;;;;;22.85;17.42;;;;;;;10.58;100.00;101035.59;5023004;28;20030;-72
2021/04/21 02:35:41;;;;;;;23.42;17.23;;;;;;;10.73;100.00;101031.00;4978508;28;20081;-72
2021/04/21 02:38:40;;;;;;;23.85;17.08;;;;;;;9.96;100.00;101039.75;5035384;28;20083;-72
2021/04/21 02:41:51;;;;;;;25.00;16.92;;;;;;;9.85;100.00;101038.13;5037040;28;20056;-73
2021/04/21 02:44:45;;;;;;;22.60;16.83;;;;;;;9.97;100.00;101038.88;5015878;28;20103;-74
2021/04/21 02:47:54;;;;;;;23.92;17.67;;;;;;;10.17;100.00;101041.34;5022217;28;20120;-75
2021/04/21 02:50:49;;;;;;;21.80;16.90;;;;;;;10.06;100.00;101040.56;5035382;28;20025;-73
2021/04/21 02:54:06;;;;;;;20.75;16.63;;;;;;;10.04;100.00;101050.13;5037427;28;20386;-74
2021/04/21 02:57:01;;;;;;;23.67;17.13;;;;;;;10.30;100.00;101047.28;5035717;28;20036;-74
2021/04/21 02:59:55;;;;;;;23.50;16.92;;;;;;;10.06;100.00;101056.28;5022334;28;20123;-73
2021/04/21 03:03:22;;;;;;;24.40;18.10;;;;;;;10.38;100.00;101053.31;5036167;28;20041;-73
2021/04/21 03:06:11;;;;;;;22.30;16.98;;;;;;;10.20;100.00;101057.00;5023800;28;20052;-74
2021/04/21 03:09:13;;;;;;;24.70;17.27;;;;;;;9.97;100.00;101054.56;5035936;28;20022;-73
2021/04/21 03:12:02;;;;;;;24.67;17.23;;;;;;;10.09;100.00;101053.63;5037353;28;20021;-73
2021/04/21 03:14:54;;;;;;;25.27;17.42;;;;;;;10.16;100.00;101057.91;5035920;28;20046;-74
2021/04/21 03:17:42;;;;;;;24.27;17.58;;;;;;;9.85;100.00;101065.16;5035907;28;20068;-73
2021/04/21 03:20:32;;;;;;;23.27;17.25;;;;;;;10.30;100.00;101057.75;5035388;28;20055;-73
2021/04/21 03:23:21;;;;;;;24.40;18.00;;;;;;;9.97;100.00;101059.81;5035781;28;20033;-74
2021/04/21 03:26:09;;;;;;;28.50;19.45;;;;;;;10.06;100.00;101064.97;5035858;28;20037;-74
2021/04/21 03:28:59;;;;;;;26.67;19.48;;;;;;;10.57;100.00;101068.78;5035222;28;20108;-74
2021/04/21 03:31:48;;;;;;;30.67;20.30;;;;;;;10.46;100.00;101067.19;5036763;28;20529;-74
2021/04/21 03:34:37;;;;;;;27.30;19.05;;;;;;;10.31;100.00;101072.59;5037606;28;20237;-73
2021/04/21 03:37:40;;;;;;;25.13;18.48;;;;;;;10.68;100.00;101073.91;5035542;28;20039;-75
2021/04/21 03:40:27;;;;;;;26.23;19.27;;;;;;;10.29;100.00;101082.22;5020765;28;20025;-74
2021/04/21 03:43:13;;;;;;;26.77;18.23;;;;;;;9.98;100.00;101082.47;5035065;28;20024;-74
2021/04/21 03:46:00;;;;;;;24.33;17.48;;;;;;;10.40;100.00;101085.59;5036636;28;20034;-74
2021/04/21 03:48:46;;;;;;;26.65;17.83;;;;;;;10.42;100.00;101083.81;5034616;28;20018;-74
2021/04/21 03:51:32;;;;;;;22.90;17.50;;;;;;;10.34;100.00;101089.16;5035575;28;20029;-74
2021/04/21 03:54:18;;;;;;;23.50;17.95;;;;;;;10.29;100.00;101100.56;5034833;28;20053;-73
2021/04/21 03:57:06;;;;;;;24.73;18.17;;;;;;;10.60;100.00;101102.81;5035400;28;20033;-75
2021/04/21 03:59:53;;;;;;;26.63;19.67;;;;;;;10.63;100.00;101101.91;5007797;28;20044;-74
2021/04/21 04:02:42;;;;;;;30.58;20.90;;;;;;;10.55;100.00;101104.63;5034917;28;20041;-74
2021/04/21 04:05:52;;;;;;;33.03;22.30;;;;;;;10.67;100.00;101111.47;5035071;28;20029;-74
2021/04/21 04:08:40;;;;;;;30.15;20.60;;;;;;;10.03;100.00;101108.63;5036128;28;20064;-74
2021/04/21 04:11:31;;;;;;;31.98;21.75;;;;;;;10.77;100.00;101115.72;5035284;28;20524;-74
2021/04/21 04:14:28;;;;;;;25.98;19.52;;;;;;;10.49;100.00;101117.78;5034604;28;20053;-74
2021/04/21 04:17:21;;;;;;;27.55;19.88;;;;;;;10.65;100.00;101119.34;5019546;28;20033;-74
2021/04/21 04:20:11;;;;;;;26.60;20.00;;;;;;;10.54;100.00;101129.09;5020122;28;20036;-74
2021/04/21 04:23:04;;;;;;;23.77;17.45;;;;;;;10.40;100.00;101124.88;5034582;28;20075;-74
2021/04/21 04:25:51;;;;;;;24.92;17.77;;;;;;;10.66;100.00;101133.31;5033972;28;20079;-74
2021/04/21 04:28:37;;;;;;;25.42;18.63;;;;;;;10.81;100.00;101126.13;5021526;28;20100;-74
2021/04/21 04:31:24;;;;;;;22.73;17.25;;;;;;;10.92;100.00;101134.75;5034978;28;20339;-74
2021/04/21 04:34:10;;;;;;;24.33;17.45;;;;;;;10.75;100.00;101141.06;5035854;28;20099;-74
2021/04/21 04:36:56;;;;;;;24.08;16.67;;;;;;;10.81;100.00;101147.09;5019611;28;20021;-75
2021/04/21 04:39:42;;;;;;;23.50;16.40;;;;;;;10.86;100.00;101145.31;5035038;28;20083;-73
2021/04/21 04:42:29;;;;;;;23.05;16.65;;;;;;;11.19;100.00;101155.38;5032959;28;20021;-73
2021/04/21 04:45:15;;;;;;;25.80;17.40;;;;;;;10.99;100.00;101159.13;5034227;28;20040;-74
2021/04/21 04:48:07;;;;;;;24.83;17.25;;;;;;;10.97;100.00;101158.31;5019818;28;20433;-74
2021/04/21 04:51:00;;;;;;;22.20;16.70;;;;;;;10.77;100.00;101157.66;5033218;28;20026;-72
2021/04/21 04:53:46;;;;;;;22.00;16.90;;;;;;;10.80;100.00;101168.97;5035036;28;20063;-74
2021/04/21 04:56:34;;;;;;;23.60;17.83;;;;;;;10.86;100.00;101168.03;5034060;28;20067;-73
2021/04/21 04:59:25;;;;;;;27.20;18.63;;;;;;;10.73;100.00;101167.28;5033378;28;20022;-73
2021/04/21 05:02:15;;;;;;;24.92;18.42;;;;;;;10.80;100.00;101175.97;5033872;28;20049;-72
2021/04/21 05:05:11;;;;;;;25.88;19.95;;;;;;;10.65;100.00;101176.97;5034170;28;20025;-71
2021/04/21 05:08:15;;;;;;;24.85;17.88;;;;;;;10.49;100.00;101180.66;5033060;28;20040;-72
2021/04/21 05:11:04;;;;;;;26.67;19.98;;;;;;;10.56;100.00;101181.47;5033175;28;20029;-72
2021/04/21 05:13:51;;;;;;;26.70;19.10;;;;;;;10.80;100.00;101179.44;5034711;28;20045;-73
2021/04/21 05:16:55;;;;;;;26.13;19.15;;;;;;;10.96;100.00;101180.13;5034371;28;20369;-73
2021/04/21 05:20:18;;;;;;;28.73;19.30;;;;;;;10.76;100.00;101185.63;5019431;28;20347;-73
2021/04/21 05:23:41;;;;;;;25.25;18.50;;;;;;;11.17;100.00;101188.63;5034038;28;20508;-73
2021/04/21 05:26:52;;;;;;;24.95;18.50;;;;;;;11.44;100.00;101180.41;5033195;28;20021;-73
2021/04/21 05:30:00;;;;;;;27.88;19.58;;;;;;;11.64;100.00;101178.41;5033139;28;20056;-74
2021/04/21 05:33:22;;;;;;;28.15;20.95;;;;;;;12.02;100.00;101188.31;5031494;28;20374;-73
2021/04/21 05:36:45;;;;;;;27.33;19.30;;;;;;;12.17;100.00;101182.84;5019610;28;20164;-73
2021/04/21 05:40:11;;;;;;;26.90;19.52;;;;;;;12.13;100.00;101186.41;5034133;28;20358;-74
2021/04/21 05:43:18;;;;;;;25.40;19.10;;;;;;;12.19;100.00;101189.78;5018372;28;20053;-73
2021/04/21 05:46:19;;;;;;;24.65;18.73;;;;;;;12.49;100.00;101189.25;5034186;28;20025;-72
2021/04/21 05:49:17;;;;;;;26.08;18.77;;;;;;;12.82;100.00;101193.88;5018937;28;20473;-73
2021/04/21 05:52:05;;;;;;;27.38;20.20;;;;;;;12.63;100.00;101197.78;5033351;28;20040;-74
2021/04/21 05:55:20;;;;;;;27.13;19.35;;;;;;;12.44;100.00;101192.84;5018742;28;20029;-73
2021/04/21 05:58:39;;;;;;;28.88;20.88;;;;;;;12.22;100.00;101199.38;5020746;28;20025;-73
2021/04/21 06:01:34;;;;;;;27.10;19.33;;;;;;;12.24;100.00;101201.09;5033493;28;20440;-73
2021/04/21 06:04:20;;;;;;;26.35;19.98;;;;;;;11.63;100.00;101202.03;5019641;28;20029;-74
2021/04/21 06:07:13;;;;;;;31.08;20.55;;;;;;;11.70;100.00;101206.31;5018844;28;20025;-74
2021/04/21 06:09:58;;;;;;;28.30;20.17;;;;;;;11.81;100.00;101209.66;5019165;28;20025;-73
2021/04/21 06:12:46;;;;;;;29.45;21.00;;;;;;;11.69;100.00;101207.22;5018970;28;20150;-73
2021/04/21 06:15:39;;;;;;;32.20;22.25;;;;;;;12.19;100.00;101210.81;5033324;28;20048;-74
2021/04/21 06:18:25;;;;;;;29.13;21.70;;;;;;;12.58;100.00;101206.63;5031946;28;20168;-73
2021/04/21 06:21:16;;;;;;;37.85;26.67;;;;;;;12.31;100.00;101209.72;5032128;28;20117;-73
2021/04/21 06:24:16;;;;;;;34.80;24.75;;;;;;;13.09;100.00;101218.81;5033437;28;20037;-74
2021/04/21 06:27:09;;;;;;;31.42;21.85;;;;;;;13.03;100.00;101218.94;5031874;28;20014;-74
2021/04/21 06:30:03;;;;;;;27.83;20.80;;;;;;;12.92;100.00;101232.28;5033103;28;20361;-73
2021/04/21 06:33:03;;;;;;;33.15;23.27;;;;;;;12.61;100.00;101232.84;5018576;28;20029;-74
2021/04/21 06:35:49;;;;;;;30.38;22.63;;;;;;;12.31;100.00;101234.25;5033347;28;20114;-74
2021/04/21 06:38:36;;;;;;;32.92;22.45;;;;;;;12.37;100.00;101244.66;5018377;28;20091;-74
2021/04/21 06:41:26;;;;;;;31.15;21.88;;;;;;;12.10;100.00;101250.31;5032113;28;20488;-74
2021/04/21 06:44:15;;;;;;;33.20;23.13;;;;;;;12.11;100.00;101248.59;5035949;28;20516;-74
2021/04/21 06:47:01;;;;;;;32.30;23.27;;;;;;;12.13;100.00;101246.81;5036532;28;20076;-74
2021/04/21 06:50:05;;;;;;;34.20;24.88;;;;;;;12.16;100.00;101250.25;5021455;28;20029;-74
2021/04/21 06:52:50;;;;;;;33.40;23.13;;;;;;;12.53;100.00;101250.50;5035794;28;20041;-75
2021/04/21 06:55:36;;;;;;;33.05;23.35;;;;;;;12.71;100.00;101251.09;5035596;28;20357;-74
2021/04/21 06:58:23;;;;;;;32.95;24.73;;;;;;;12.89;100.00;101255.13;5020971;28;20033;-75
2021/04/21 07:01:13;;;;;;;33.80;24.05;;;;;;;12.89;100.00;101247.22;5036770;28;20426;-74
2021/04/21 07:04:19;;;;;;;32.55;23.02;;;;;;;13.10;100.00;101254.78;5021443;28;20030;-74
2021/04/21 07:07:05;;;;;;;30.40;21.95;;;;;;;13.22;100.00;101260.66;5021653;28;20025;-74
2021/04/21 07:09:50;;;;;;;28.23;20.50;;;;;;;13.01;100.00;101258.44;5035540;28;20056;-73
2021/04/21 07:12:36;;;;;;;29.40;21.23;;;;;;;13.25;100.00;101255.34;5035695;28;20061;-74
2021/04/21 07:15:23;;;;;;;28.13;20.52;;;;;;;13.78;100.00;101270.00;5035269;28;20029;-73
2021/04/21 07:18:15;;;;;;;30.38;20.77;;;;;;;13.52;100.00;101267.06;5021361;28;20446;-74
2021/04/21 07:21:04;;;;;;;32.88;22.27;;;;;;;13.72;100.00;101267.50;5035120;28;20030;-74
2021/04/21 07:24:00;;;;;;;27.50;20.63;;;;;;;13.83;100.00;101270.78;5035335;28;20426;-74
2021/04/21 07:26:48;;;;;;;29.20;22.23;;;;;;;14.20;100.00;101272.53;5021808;28;20095;-75
2021/04/21 07:29:35;;;;;;;30.42;21.17;;;;;;;13.99;100.00;101265.13;5035948;28;20029;-74
2021/04/21 07:32:27;;;;;;;29.02;20.90;;;;;;;13.63;100.00;101272.97;5034972;28;20030;-74
2021/04/21 07:35:23;;;;;;;30.00;20.42;;;;;;;14.24;100.00;101273.38;5035722;28;20191;-75
2021/04/21 07:38:18;;;;;;;28.35;20.45;;;;;;;14.78;100.00;101267.63;5034840;28;20030;-75
2021/04/21 07:41:04;;;;;;;29.30;20.80;;;;;;;14.88;100.00;101277.00;5035593;28;20040;-74
2021/04/21 07:43:50;;;;;;;27.58;20.67;;;;;;;14.43;100.00;101286.06;5035256;28;20049;-73
2021/04/21 07:46:36;;;;;;;29.05;20.40;;;;;;;14.63;100.00;101283.81;5034542;28;20079;-73
2021/04/21 07:49:30;;;;;;;27.50;20.45;;;;;;;14.72;100.00;101280.94;5035797;28;20013;-74
2021/04/21 07:52:24;;;;;;;27.98;20.45;;;;;;;14.90;100.00;101278.75;5035758;28;20029;-74
2021/04/21 07:55:15;;;;;;;30.48;20.42;;;;;;;15.55;100.00;101286.63;5034019;28;20327;-74
2021/04/21 07:58:04;;;;;;;28.10;20.48;;;;;;;15.61;100.00;101282.94;5034691;28;20043;-75
2021/04/21 08:00:50;;;;;;;29.40;19.58;;;;;;;15.25;100.00;101290.09;5034401;28;20039;-75
2021/04/21 08:03:36;;;;;;;31.35;21.40;;;;;;;15.48;100.00;101287.72;5034337;28;20112;-74
2021/04/21 08:06:39;;;;;;;29.55;20.70;;;;;;;15.92;100.00;101286.41;5034980;28;20126;-74
2021/04/21 08:09:31;;;;;;;27.50;20.58;;;;;;;16.13;100.00;101291.03;5034212;28;20330;-73
2021/04/21 08:12:17;;;;;;;29.20;20.73;;;;;;;15.66;100.00;101296.88;5034670;28;20037;-75
2021/04/21 08:15:09;;;;;;;32.08;22.00;;;;;;;16.41;100.00;101297.22;5034726;28;20041;-74
2021/04/21 08:18:11;;;;;;;31.85;20.70;;;;;;;16.33;100.00;101296.56;5034235;28;20103;-73
2021/04/21 08:20:58;;;;;;;28.67;19.35;;;;;;;16.85;100.00;101291.34;5033385;28;20029;-74
2021/04/21 08:23:43;;;;;;;26.30;19.25;;;;;;;16.87;100.00;101298.31;5034815;28;20033;-74
2021/04/21 08:26:29;;;;;;;23.98;19.15;;;;;;;16.99;100.00;101297.00;5034084;28;20385;-74
2021/04/21 08:29:16;;;;;;;25.55;19.25;;;;;;;17.00;100.00;101290.81;5034769;28;20354;-74
2021/04/21 08:32:03;;;;;;;24.15;19.45;;;;;;;17.61;100.00;101291.22;5034048;28;20461;-75
2021/04/21 08:34:51;;;;;;;24.75;19.50;;;;;;;17.69;100.00;101286.50;5033930;28;20514;-74
2021/04/21 08:37:37;;;;;;;24.27;19.52;;;;;;;17.40;100.00;101286.72;5034698;28;20026;-74
2021/04/21 08:40:26;;;;;;;24.45;20.27;;;;;;;17.74;100.00;101291.66;5033168;28;20032;-74
2021/04/21 08:43:14;;;;;;;27.38;20.10;;;;;;;17.98;100.00;101285.41;5033742;28;20355;-74
2021/04/21 08:46:01;;;;;;;26.05;20.63;;;;;;;17.40;100.00;101286.72;5033477;28;20366;-74
2021/04/21 08:48:47;;;;;;;26.48;20.67;;;;;;;17.70;100.00;101293.56;5034151;28;20031;-73
2021/04/21 08:51:33;;;;;;;35.22;20.38;;;;;;;18.14;100.00;101291.84;5034152;28;20430;-72
2021/04/21 08:54:23;;;;;;;25.40;19.65;;;;;;;18.40;100.00;101284.59;5033560;28;20087;-73
2021/04/21 08:57:10;;;;;;;23.05;18.08;;;;;;;17.80;100.00;101292.28;5018708;28;20091;-73
2021/04/21 08:59:57;;;;;;;25.13;18.73;;;;;;;17.42;100.00;101295.50;5034244;28;20044;-73
2021/04/21 09:02:44;;;;;;;24.88;17.75;;;;;;;18.15;100.00;101293.56;5033605;28;20025;-72
2021/04/21 09:05:29;;;;;;;26.67;18.27;;;;;;;17.96;100.00;101295.19;5020037;28;20409;-73
2021/04/21 09:08:16;;;;;;;22.08;17.27;;;;;;;18.04;100.00;101291.34;5033344;28;20032;-72
2021/04/21 09:11:02;;;;;;;23.15;17.38;;;;;;;17.76;100.00;101289.81;5019455;28;20025;-73
2021/04/21 09:13:48;;;;;;;20.35;16.60;;;;;;;17.87;100.00;101291.13;5033046;28;20060;-72
2021/04/21 09:16:35;;;;;;;25.08;17.90;;;;;;;18.10;100.00;101296.41;5033554;28;20043;-73
2021/04/21 09:19:21;;;;;;;26.38;18.77;;;;;;;17.86;100.00;101289.41;5034038;28;20048;-73
2021/04/21 09:22:09;;;;;;;21.95;17.80;;;;;;;18.16;100.00;101285.56;5019135;28;20435;-74
2021/04/21 09:24:59;;;;;;;22.67;18.05;;;;;;;17.86;100.00;101289.41;5033750;28;20040;-74
2021/04/21 09:27:53;;;;;;;21.33;17.33;;;;;;;18.07;100.00;101287.69;5019477;28;20029;-75
2021/04/21 09:30:42;;;;;;;22.17;16.92;;;;;;;18.68;100.00;101290.50;5019192;28;20108;-74
2021/04/21 09:33:29;;;;;;;20.30;16.42;;;;;;;18.95;100.00;101285.84;5033471;28;20036;-74
2021/04/21 09:36:35;;;;;;;20.65;16.73;;;;;;;18.24;100.00;101293.19;5018988;28;20088;-75
2021/04/21 09:39:24;;;;;;;20.30;16.98;;;;;;;17.86;100.00;101285.88;5033593;28;20033;-73
2021/04/21 09:42:10;;;;;;;21.17;17.73;;;;;;;17.90;100.00;101291.03;5020133;28;20041;-74
2021/04/21 09:44:55;;;;;;;20.95;16.58;;;;;;;18.19;100.00;101289.88;5032666;28;20453;-74
2021/04/21 09:47:41;;;;;;;25.23;19.38;;;;;;;18.52;100.00;101286.75;5034800;28;20029;-75
2021/04/21 09:50:28;;;;;;;19.67;16.33;;;;;;;17.76;100.00;101279.22;5033445;28;20032;-74
2021/04/21 09:53:20;;;;;;;19.00;15.82;;;;;;;17.71;100.00;101289.09;5034783;28;20033;-73
2021/04/21 09:56:22;;;;;;;18.65;15.48;;;;;;;18.51;100.00;101278.84;5035581;28;20025;-75
2021/04/21 09:59:10;;;;;;;22.23;17.40;;;;;;;18.61;100.00;101282.88;5021312;28;20032;-73
2021/04/21 10:01:57;;;;;;;18.85;15.63;;;;;;;19.18;100.00;101280.41;5033369;28;20025;-74
2021/04/21 10:04:43;;;;;;;20.88;15.93;;;;;;;18.97;100.00;101278.69;5032355;28;20029;-73
2021/04/21 10:07:29;;;;;;;19.15;15.13;;;;;;;18.91;100.00;101278.94;5032808;28;20032;-74
2021/04/21 10:10:27;;;;;;;18.27;14.45;;;;;;;18.55;100.00;101278.69;5032596;28;20061;-73
2021/04/21 10:13:16;;;;;;;17.83;14.25;;;;;;;18.64;100.00;101272.09;5031731;28;20141;-73
2021/04/21 10:16:09;;;;;;;18.80;14.15;;;;;;;19.24;100.00;101274.84;5018457;28;20415;-73
2021/04/21 10:18:54;;;;;;;17.77;13.57;;;;;;;18.95;100.00;101273.44;5021948;28;20081;-73
2021/04/21 10:21:40;;;;;;;18.10;13.63;;;;;;;18.71;100.00;101268.28;5022448;28;20442;-74
2021/04/21 10:24:30;;;;;;;18.77;14.32;;;;;;;18.61;100.00;101274.91;5036892;28;20046;-73
2021/04/21 10:27:15;;;;;;;16.50;12.95;;;;;;;18.96;99.78;101268.97;5036044;28;20071;-73
2021/04/21 10:30:04;;;;;;;15.98;13.32;;;;;;;18.47;100.00;101267.53;5036205;28;20025;-74
2021/04/21 10:32:50;;;;;;;16.08;13.23;;;;;;;18.90;100.00;101263.94;5035885;28;20159;-74
2021/04/21 10:35:36;;;;;;;17.10;13.43;;;;;;;19.16;100.00;101261.88;5037283;28;20513;-74
2021/04/21 10:38:24;;;;;;;15.43;12.43;;;;;;;19.04;100.00;101257.09;5035906;28;20401;-75
2021/04/21 10:41:28;;;;;;;15.55;12.77;;;;;;;18.82;100.00;101255.44;5022646;28;20025;-74
2021/04/21 10:44:25;;;;;;;16.02;12.57;;;;;;;19.34;100.00;101246.94;5036119;28;20102;-74
2021/04/21 10:47:24;;;;;;;15.18;12.77;;;;;;;19.56;96.01;101250.34;5022279;28;20026;-74
2021/04/21 10:50:11;;;;;;;14.18;12.38;;;;;;;19.52;98.97;101248.75;5036399;28;20041;-74
2021/04/21 10:52:56;;;;;;;13.30;11.40;;;;;;;19.21;95.41;101251.88;5021732;28;20049;-74
2021/04/21 10:55:42;;;;;;;13.75;10.90;;;;;;;19.32;96.51;101238.16;5036731;28;20033;-73
2021/04/21 10:58:54;;;;;;;14.52;11.20;;;;;;;19.47;94.28;101242.78;5036102;28;20079;-73
2021/04/21 11:01:43;;;;;;;13.88;11.57;;;;;;;19.25;94.04;101252.63;5035994;28;20456;-74
2021/04/21 11:05:05;;;;;;;15.00;13.10;;;;;;;18.80;98.59;101230.72;5021065;28;20021;-74
2021/04/21 11:08:00;;;;;;;14.65;11.52;;;;;;;18.98;97.10;101232.59;5035477;28;20029;-74
2021/04/21 11:10:54;;;;;;;12.95;10.93;;;;;;;19.36;93.48;101229.13;5022819;28;20021;-74
2021/04/21 11:13:42;;;;;;;12.73;10.95;;;;;;;19.59;90.70;101228.94;5035590;28;20506;-75
2021/04/21 11:16:31;;;;;;;13.05;11.30;;;;;;;19.38;92.49;101235.25;5035806;28;20048;-74
2021/04/21 11:19:20;;;;;;;16.80;11.60;;;;;;;19.33;94.19;101223.94;5035532;28;20033;-74
2021/04/21 11:22:28;;;;;;;12.35;10.50;;;;;;;19.93;91.94;101214.91;5022221;28;20082;-74
2021/04/21 11:25:28;;;;;;;11.50;9.95;;;;;;;20.16;87.95;101215.56;5036592;28;20033;-73
2021/04/21 11:28:52;;;;;;;11.55;9.40;;;;;;;19.63;89.50;101219.88;5036042;28;20026;-75
2021/04/21 11:31:44;;;;;;;10.30;9.20;;;;;;;19.78;89.81;101213.84;5035984;28;20048;-75
2021/04/21 11:34:38;;;;;;;10.30;9.13;;;;;;;19.90;88.73;101213.28;5035696;28;20017;-74
2021/04/21 11:37:43;;;;;;;9.32;8.35;;;;;;;20.35;82.42;101205.75;5022633;28;20121;-74
2021/04/21 11:40:31;;;;;;;10.20;9.02;;;;;;;19.83;85.23;101206.50;5034411;28;20022;-74
2021/04/21 11:43:17;;;;;;;10.02;9.02;;;;;;;20.44;81.27;101204.41;5036324;28;20386;-76
2021/04/21 11:46:03;;;;;;;10.50;8.70;;;;;;;20.57;77.26;101201.03;5021847;28;20029;-76
2021/04/21 11:48:49;;;;;;;10.05;8.75;;;;;;;20.53;78.27;101203.97;5035985;28;20021;-74
2021/04/21 11:51:45;;;;;;;8.75;7.43;;;;;;;20.51;73.00;101205.81;5035180;28;20481;-74
2021/04/21 11:54:37;;;;;;;9.52;7.40;;;;;;;20.87;69.73;101202.16;5022120;28;20071;-75
2021/04/21 11:57:23;;;;;;;8.38;7.40;;;;;;;20.74;70.95;101197.53;5020506;28;20044;-74
2021/04/21 12:00:10;;;;;;;9.68;7.60;;;;;;;20.35;69.77;101200.41;5035618;28;20086;-74
2021/04/21 12:02:57;;;;;;;13.77;8.88;;;;;;;20.45;71.31;101199.00;5021677;28;20091;-75
2021/04/21 12:05:44;;;;;;;9.73;8.60;;;;;;;20.10;71.72;101201.69;5034906;28;20472;-75
2021/04/21 12:08:32;;;;;;;9.10;8.20;;;;;;;20.29;69.25;101198.03;5035570;28;20370;-75
2021/04/21 12:11:33;;;;;;;8.77;7.57;;;;;;;20.44;70.71;101204.41;5034752;28;20366;-75
2021/04/21 12:14:19;;;;;;;7.88;7.07;;;;;;;20.40;72.07;101190.38;5021187;28;20549;-74
2021/04/21 12:17:11;;;;;;;8.75;6.47;;;;;;;20.56;68.81;101195.78;5019662;28;20022;-74
2021/04/21 12:19:59;;;;;;;7.53;5.50;;;;;;;20.55;60.78;101197.63;5033752;28;20365;-75
2021/04/21 12:22:45;;;;;;;9.40;5.70;;;;;;;20.31;55.68;101201.50;5034977;28;20021;-73
2021/04/21 12:25:32;;;;;;;8.25;5.45;;;;;;;20.52;53.06;101197.75;5034809;28;20025;-73
2021/04/21 12:28:17;;;;;;;8.25;7.45;;;;;;;20.43;52.18;101190.25;5034611;28;20026;-74
2021/04/21 12:31:03;;;;;;;6.82;5.80;;;;;;;20.74;53.15;101194.88;5035551;28;20466;-73
2021/04/21 12:33:53;;;;;;;7.65;5.82;;;;;;;20.47;56.22;101199.81;5034437;28;20117;-73
2021/04/21 12:36:39;;;;;;;7.45;5.90;;;;;;;20.91;54.19;101203.75;5020718;28;20028;-76
2021/04/21 12:39:26;;;;;;;6.45;5.72;;;;;;;20.27;56.66;101193.75;5034879;28;20466;-72
2021/04/21 12:42:15;;;;;;;6.13;5.30;;;;;;;19.96;53.71;101198.78;5034753;28;20036;-73
2021/04/21 12:45:00;;;;;;;6.57;5.13;;;;;;;20.41;52.85;101188.59;5020399;28;20374;-73
2021/04/21 12:47:46;;;;;;;6.80;5.30;;;;;;;20.18;53.85;101192.41;5019386;28;20067;-73
2021/04/21 12:50:33;;;;;;;6.45;5.82;;;;;;;19.81;57.18;101195.06;5034744;28;20026;-73
2021/04/21 12:53:21;;;;;;;8.70;6.30;;;;;;;20.29;58.17;101192.72;5021066;28;20036;-73
2021/04/21 12:56:08;;;;;;;7.38;6.22;;;;;;;20.36;59.20;101179.97;5034756;28;20399;-73
2021/04/21 12:58:54;;;;;;;7.70;6.68;;;;;;;20.50;61.20;101185.47;5033427;28;20026;-74